sensor_id;sensor_type;location;lat;lon;timestamp;P1;durP1;ratioP1;P2;durP2;ratioP2
52488;SDS011;38399;52.236;104.280;2022-10-19T00:00:04;25.17;;;10.88;;
52488;SDS011;38399;52.236;104.280;2022-10-19T00:02:31;22.20;;;11.52;;
52488;SDS011;38399;52.236;104.280;2022-10-19T00:05:01;32.92;;;12.27;;
52488;SDS011;38399;52.236;104.280;2022-10-19T00:07:28;38.60;;;13.13;;
52488;SDS011;38399;52.236;104.280;2022-10-19T00:09:55;33.20;;;12.45;;
52488;SDS011;38399;52.236;104.280;2022-10-19T00:14:48;25.98;;;13.27;;
52488;SDS011;38399;52.236;104.280;2022-10-19T00:17:14;38.95;;;15.15;;
52488;SDS011;38399;52.236;104.280;2022-10-19T00:19:40;53.63;;;17.33;;
52488;SDS011;38399;52.236;104.280;2022-10-19T00:22:06;43.95;;;15.32;;
52488;SDS011;38399;52.236;104.280;2022-10-19T00:24:33;31.73;;;15.02;;
52488;SDS011;38399;52.236;104.280;2022-10-19T00:26:59;45.58;;;15.50;;
52488;SDS011;38399;52.236;104.280;2022-10-19T00:29:25;28.95;;;14.70;;
52488;SDS011;38399;52.236;104.280;2022-10-19T00:31:52;35.67;;;14.57;;
52488;SDS011;38399;52.236;104.280;2022-10-19T00:34:18;36.35;;;15.65;;
52488;SDS011;38399;52.236;104.280;2022-10-19T00:36:45;30.75;;;12.65;;
52488;SDS011;38399;52.236;104.280;2022-10-19T00:39:12;24.23;;;12.48;;
52488;SDS011;38399;52.236;104.280;2022-10-19T00:41:40;32.80;;;13.38;;
52488;SDS011;38399;52.236;104.280;2022-10-19T00:46:37;29.35;;;12.95;;
52488;SDS011;38399;52.236;104.280;2022-10-19T00:49:13;30.65;;;16.17;;
52488;SDS011;38399;52.236;104.280;2022-10-19T00:51:44;25.92;;;13.15;;
52488;SDS011;38399;52.236;104.280;2022-10-19T00:54:22;24.55;;;12.38;;
52488;SDS011;38399;52.236;104.280;2022-10-19T00:56:51;29.98;;;10.63;;
52488;SDS011;38399;52.236;104.280;2022-10-19T00:59:20;26.42;;;11.90;;
52488;SDS011;38399;52.236;104.280;2022-10-19T01:01:49;23.67;;;10.45;;
52488;SDS011;38399;52.236;104.280;2022-10-19T01:04:21;26.13;;;10.50;;
52488;SDS011;38399;52.236;104.280;2022-10-19T01:06:49;25.67;;;10.77;;
52488;SDS011;38399;52.236;104.280;2022-10-19T01:09:16;26.75;;;10.10;;
52488;SDS011;38399;52.236;104.280;2022-10-19T01:11:45;21.10;;;10.15;;
52488;SDS011;38399;52.236;104.280;2022-10-19T01:20:15;23.80;;;11.35;;
52488;SDS011;38399;52.236;104.280;2022-10-19T01:28:17;25.38;;;11.35;;
52488;SDS011;38399;52.236;104.280;2022-10-19T01:42:02;14.30;;;9.18;;
52488;SDS011;38399;52.236;104.280;2022-10-19T01:45:03;14.15;;;10.10;;
52488;SDS011;38399;52.236;104.280;2022-10-19T01:47:32;22.80;;;11.68;;
52488;SDS011;38399;52.236;104.280;2022-10-19T01:50:09;17.55;;;11.25;;
52488;SDS011;38399;52.236;104.280;2022-10-19T01:52:41;24.58;;;12.80;;
52488;SDS011;38399;52.236;104.280;2022-10-19T01:55:09;25.27;;;15.88;;
52488;SDS011;38399;52.236;104.280;2022-10-19T01:57:40;20.95;;;12.15;;
52488;SDS011;38399;52.236;104.280;2022-10-19T02:00:11;17.75;;;10.75;;
52488;SDS011;38399;52.236;104.280;2022-10-19T02:02:43;17.63;;;9.85;;
52488;SDS011;38399;52.236;104.280;2022-10-19T02:05:13;18.17;;;9.93;;
52488;SDS011;38399;52.236;104.280;2022-10-19T02:07:42;16.20;;;11.07;;
52488;SDS011;38399;52.236;104.280;2022-10-19T02:10:13;17.05;;;10.02;;
52488;SDS011;38399;52.236;104.280;2022-10-19T02:15:10;20.67;;;10.68;;
52488;SDS011;38399;52.236;104.280;2022-10-19T02:17:46;17.77;;;10.82;;
52488;SDS011;38399;52.236;104.280;2022-10-19T02:20:16;24.70;;;11.13;;
52488;SDS011;38399;52.236;104.280;2022-10-19T02:22:43;26.10;;;11.63;;
52488;SDS011;38399;52.236;104.280;2022-10-19T02:25:10;16.92;;;10.55;;
52488;SDS011;38399;52.236;104.280;2022-10-19T02:27:37;25.15;;;11.77;;
52488;SDS011;38399;52.236;104.280;2022-10-19T02:30:13;16.33;;;10.52;;
52488;SDS011;38399;52.236;104.280;2022-10-19T02:32:42;32.63;;;19.17;;
52488;SDS011;38399;52.236;104.280;2022-10-19T02:35:09;25.27;;;14.65;;
52488;SDS011;38399;52.236;104.280;2022-10-19T02:37:37;20.38;;;11.93;;
52488;SDS011;38399;52.236;104.280;2022-10-19T02:40:04;15.45;;;11.10;;
52488;SDS011;38399;52.236;104.280;2022-10-19T02:42:36;19.88;;;10.48;;
52488;SDS011;38399;52.236;104.280;2022-10-19T02:45:11;17.75;;;11.35;;
52488;SDS011;38399;52.236;104.280;2022-10-19T02:47:46;19.45;;;11.70;;
52488;SDS011;38399;52.236;104.280;2022-10-19T02:50:23;18.35;;;10.15;;
52488;SDS011;38399;52.236;104.280;2022-10-19T02:55:15;15.85;;;9.60;;
52488;SDS011;38399;52.236;104.280;2022-10-19T02:57:42;15.02;;;8.90;;
52488;SDS011;38399;52.236;104.280;2022-10-19T03:00:08;22.00;;;9.07;;
52488;SDS011;38399;52.236;104.280;2022-10-19T03:02:35;14.65;;;9.20;;
52488;SDS011;38399;52.236;104.280;2022-10-19T03:05:02;14.10;;;9.38;;
52488;SDS011;38399;52.236;104.280;2022-10-19T03:07:29;15.13;;;8.70;;
52488;SDS011;38399;52.236;104.280;2022-10-19T03:09:55;14.75;;;8.77;;
52488;SDS011;38399;52.236;104.280;2022-10-19T03:12:21;14.40;;;9.80;;
52488;SDS011;38399;52.236;104.280;2022-10-19T03:14:47;13.20;;;8.98;;
52488;SDS011;38399;52.236;104.280;2022-10-19T03:17:14;18.35;;;9.15;;
52488;SDS011;38399;52.236;104.280;2022-10-19T03:19:41;15.07;;;9.25;;
52488;SDS011;38399;52.236;104.280;2022-10-19T03:22:07;15.15;;;9.20;;
52488;SDS011;38399;52.236;104.280;2022-10-19T03:26:59;15.90;;;10.02;;
52488;SDS011;38399;52.236;104.280;2022-10-19T03:29:26;18.77;;;9.88;;
52488;SDS011;38399;52.236;104.280;2022-10-19T03:31:52;22.13;;;13.50;;
52488;SDS011;38399;52.236;104.280;2022-10-19T03:34:18;20.27;;;10.13;;
52488;SDS011;38399;52.236;104.280;2022-10-19T03:36:45;22.08;;;11.38;;
52488;SDS011;38399;52.236;104.280;2022-10-19T03:39:12;24.33;;;11.77;;
52488;SDS011;38399;52.236;104.280;2022-10-19T03:41:40;24.52;;;13.15;;
52488;SDS011;38399;52.236;104.280;2022-10-19T03:44:07;23.45;;;13.50;;
52488;SDS011;38399;52.236;104.280;2022-10-19T03:46:35;20.35;;;12.55;;
52488;SDS011;38399;52.236;104.280;2022-10-19T03:49:02;19.38;;;11.73;;
52488;SDS011;38399;52.236;104.280;2022-10-19T03:51:29;22.30;;;12.88;;
52488;SDS011;38399;52.236;104.280;2022-10-19T03:53:57;29.65;;;12.85;;
52488;SDS011;38399;52.236;104.280;2022-10-19T03:56:26;34.97;;;13.95;;
52488;SDS011;38399;52.236;104.280;2022-10-19T03:58:54;26.15;;;13.98;;
52488;SDS011;38399;52.236;104.280;2022-10-19T04:01:31;28.77;;;13.63;;
52488;SDS011;38399;52.236;104.280;2022-10-19T04:04:00;29.65;;;14.00;;
52488;SDS011;38399;52.236;104.280;2022-10-19T04:06:34;31.63;;;15.10;;
52488;SDS011;38399;52.236;104.280;2022-10-19T04:09:02;31.10;;;15.38;;
52488;SDS011;38399;52.236;104.280;2022-10-19T04:11:30;23.98;;;13.15;;
52488;SDS011;38399;52.236;104.280;2022-10-19T04:13:58;23.60;;;14.23;;
52488;SDS011;38399;52.236;104.280;2022-10-19T04:18:52;28.17;;;14.70;;
52488;SDS011;38399;52.236;104.280;2022-10-19T04:21:29;23.70;;;12.75;;
52488;SDS011;38399;52.236;104.280;2022-10-19T04:23:58;24.05;;;13.18;;
52488;SDS011;38399;52.236;104.280;2022-10-19T04:26:28;26.17;;;12.93;;
52488;SDS011;38399;52.236;104.280;2022-10-19T04:28:58;23.40;;;13.02;;
52488;SDS011;38399;52.236;104.280;2022-10-19T04:31:25;21.88;;;12.95;;
52488;SDS011;38399;52.236;104.280;2022-10-19T04:33:53;26.13;;;14.73;;
52488;SDS011;38399;52.236;104.280;2022-10-19T04:36:19;32.00;;;16.95;;
52488;SDS011;38399;52.236;104.280;2022-10-19T04:38:46;30.15;;;15.23;;
52488;SDS011;38399;52.236;104.280;2022-10-19T04:41:14;28.75;;;15.23;;
52488;SDS011;38399;52.236;104.280;2022-10-19T04:43:42;27.35;;;15.32;;
52488;SDS011;38399;52.236;104.280;2022-10-19T04:46:13;26.58;;;15.63;;
52488;SDS011;38399;52.236;104.280;2022-10-19T04:48:41;28.20;;;14.82;;
52488;SDS011;38399;52.236;104.280;2022-10-19T04:51:08;29.60;;;15.48;;
52488;SDS011;38399;52.236;104.280;2022-10-19T04:53:35;29.65;;;16.90;;
52488;SDS011;38399;52.236;104.280;2022-10-19T04:56:03;35.17;;;16.48;;
52488;SDS011;38399;52.236;104.280;2022-10-19T04:58:36;31.27;;;17.77;;
52488;SDS011;38399;52.236;104.280;2022-10-19T05:01:06;30.88;;;16.08;;
52488;SDS011;38399;52.236;104.280;2022-10-19T05:03:36;31.80;;;15.68;;
52488;SDS011;38399;52.236;104.280;2022-10-19T05:06:03;28.90;;;15.23;;
52488;SDS011;38399;52.236;104.280;2022-10-19T05:08:30;29.92;;;15.82;;
52488;SDS011;38399;52.236;104.280;2022-10-19T05:10:59;29.15;;;16.50;;
52488;SDS011;38399;52.236;104.280;2022-10-19T05:13:31;31.40;;;15.55;;
52488;SDS011;38399;52.236;104.280;2022-10-19T05:15:58;37.50;;;16.73;;
52488;SDS011;38399;52.236;104.280;2022-10-19T05:18:26;31.30;;;16.45;;
52488;SDS011;38399;52.236;104.280;2022-10-19T05:23:27;29.80;;;15.30;;
52488;SDS011;38399;52.236;104.280;2022-10-19T05:26:00;34.45;;;17.42;;
52488;SDS011;38399;52.236;104.280;2022-10-19T05:28:28;34.95;;;17.00;;
52488;SDS011;38399;52.236;104.280;2022-10-19T05:30:54;33.20;;;19.48;;
52488;SDS011;38399;52.236;104.280;2022-10-19T05:35:47;35.15;;;19.63;;
52488;SDS011;38399;52.236;104.280;2022-10-19T05:38:13;36.63;;;20.02;;
52488;SDS011;38399;52.236;104.280;2022-10-19T05:40:48;39.10;;;22.08;;
52488;SDS011;38399;52.236;104.280;2022-10-19T05:43:15;42.70;;;20.83;;
52488;SDS011;38399;52.236;104.280;2022-10-19T05:45:41;40.13;;;21.15;;
52488;SDS011;38399;52.236;104.280;2022-10-19T05:48:07;35.53;;;19.20;;
52488;SDS011;38399;52.236;104.280;2022-10-19T05:50:33;32.85;;;18.92;;
52488;SDS011;38399;52.236;104.280;2022-10-19T05:52:59;32.97;;;16.27;;
52488;SDS011;38399;52.236;104.280;2022-10-19T05:55:25;28.83;;;16.65;;
52488;SDS011;38399;52.236;104.280;2022-10-19T05:57:52;31.38;;;18.48;;
52488;SDS011;38399;52.236;104.280;2022-10-19T06:00:18;33.53;;;16.95;;
52488;SDS011;38399;52.236;104.280;2022-10-19T06:02:44;33.83;;;15.05;;
52488;SDS011;38399;52.236;104.280;2022-10-19T06:05:10;23.38;;;13.02;;
52488;SDS011;38399;52.236;104.280;2022-10-19T06:07:36;27.33;;;13.25;;
52488;SDS011;38399;52.236;104.280;2022-10-19T06:10:03;19.63;;;11.40;;
52488;SDS011;38399;52.236;104.280;2022-10-19T06:12:29;20.27;;;11.07;;
52488;SDS011;38399;52.236;104.280;2022-10-19T06:14:56;23.90;;;10.85;;
52488;SDS011;38399;52.236;104.280;2022-10-19T06:17:22;19.60;;;9.57;;
52488;SDS011;38399;52.236;104.280;2022-10-19T06:19:48;16.52;;;9.60;;
52488;SDS011;38399;52.236;104.280;2022-10-19T06:22:14;17.75;;;10.40;;
52488;SDS011;38399;52.236;104.280;2022-10-19T06:24:41;23.02;;;10.02;;
52488;SDS011;38399;52.236;104.280;2022-10-19T06:27:07;20.90;;;9.27;;
52488;SDS011;38399;52.236;104.280;2022-10-19T06:29:33;15.82;;;9.77;;
52488;SDS011;38399;52.236;104.280;2022-10-19T06:32:00;15.25;;;8.82;;
52488;SDS011;38399;52.236;104.280;2022-10-19T06:34:26;16.83;;;8.90;;
52488;SDS011;38399;52.236;104.280;2022-10-19T06:36:52;14.65;;;8.02;;
52488;SDS011;38399;52.236;104.280;2022-10-19T06:39:18;17.02;;;9.05;;
52488;SDS011;38399;52.236;104.280;2022-10-19T06:41:45;16.13;;;8.75;;
52488;SDS011;38399;52.236;104.280;2022-10-19T06:44:17;14.35;;;8.02;;
52488;SDS011;38399;52.236;104.280;2022-10-19T06:46:44;15.75;;;9.40;;
52488;SDS011;38399;52.236;104.280;2022-10-19T06:49:10;19.40;;;8.82;;
52488;SDS011;38399;52.236;104.280;2022-10-19T06:51:38;17.52;;;8.85;;
52488;SDS011;38399;52.236;104.280;2022-10-19T06:54:05;17.27;;;8.25;;
52488;SDS011;38399;52.236;104.280;2022-10-19T06:56:32;15.95;;;8.52;;
52488;SDS011;38399;52.236;104.280;2022-10-19T06:58:58;14.25;;;8.07;;
52488;SDS011;38399;52.236;104.280;2022-10-19T07:01:24;15.32;;;7.82;;
52488;SDS011;38399;52.236;104.280;2022-10-19T07:03:51;16.30;;;8.45;;
52488;SDS011;38399;52.236;104.280;2022-10-19T07:06:17;18.23;;;7.45;;
52488;SDS011;38399;52.236;104.280;2022-10-19T07:08:44;15.05;;;7.50;;
52488;SDS011;38399;52.236;104.280;2022-10-19T07:11:13;19.27;;;7.75;;
52488;SDS011;38399;52.236;104.280;2022-10-19T07:13:41;19.60;;;8.95;;
52488;SDS011;38399;52.236;104.280;2022-10-19T07:16:15;15.30;;;7.32;;
52488;SDS011;38399;52.236;104.280;2022-10-19T07:18:42;13.23;;;7.68;;
52488;SDS011;38399;52.236;104.280;2022-10-19T07:21:09;15.00;;;7.50;;
52488;SDS011;38399;52.236;104.280;2022-10-19T07:23:38;13.88;;;6.90;;
52488;SDS011;38399;52.236;104.280;2022-10-19T07:29:02;19.27;;;8.80;;
52488;SDS011;38399;52.236;104.280;2022-10-19T07:33:56;15.68;;;6.72;;
52488;SDS011;38399;52.236;104.280;2022-10-19T07:36:25;12.85;;;6.63;;
52488;SDS011;38399;52.236;104.280;2022-10-19T07:38:53;13.80;;;6.88;;
52488;SDS011;38399;52.236;104.280;2022-10-19T07:41:21;13.43;;;6.15;;
52488;SDS011;38399;52.236;104.280;2022-10-19T07:43:48;11.98;;;6.40;;
52488;SDS011;38399;52.236;104.280;2022-10-19T07:46:16;11.30;;;5.97;;
52488;SDS011;38399;52.236;104.280;2022-10-19T07:48:47;12.27;;;5.63;;
52488;SDS011;38399;52.236;104.280;2022-10-19T07:51:14;11.30;;;6.55;;
52488;SDS011;38399;52.236;104.280;2022-10-19T07:53:42;10.88;;;5.25;;
52488;SDS011;38399;52.236;104.280;2022-10-19T07:56:13;12.15;;;5.78;;
52488;SDS011;38399;52.236;104.280;2022-10-19T07:58:46;15.07;;;5.88;;
52488;SDS011;38399;52.236;104.280;2022-10-19T08:01:19;10.27;;;5.30;;
52488;SDS011;38399;52.236;104.280;2022-10-19T08:03:48;12.02;;;5.07;;
52488;SDS011;38399;52.236;104.280;2022-10-19T08:06:17;10.77;;;5.50;;
52488;SDS011;38399;52.236;104.280;2022-10-19T08:08:44;14.05;;;6.35;;
52488;SDS011;38399;52.236;104.280;2022-10-19T08:13:45;8.77;;;4.95;;
52488;SDS011;38399;52.236;104.280;2022-10-19T08:16:22;12.55;;;5.40;;
52488;SDS011;38399;52.236;104.280;2022-10-19T08:21:15;9.90;;;4.95;;
52488;SDS011;38399;52.236;104.280;2022-10-19T08:26:08;10.35;;;4.85;;
52488;SDS011;38399;52.236;104.280;2022-10-19T08:28:35;11.18;;;5.78;;
52488;SDS011;38399;52.236;104.280;2022-10-19T08:31:14;13.98;;;6.45;;
52488;SDS011;38399;52.236;104.280;2022-10-19T08:33:43;12.00;;;5.85;;
52488;SDS011;38399;52.236;104.280;2022-10-19T08:36:10;14.50;;;7.45;;
52488;SDS011;38399;52.236;104.280;2022-10-19T08:38:37;14.38;;;7.38;;
52488;SDS011;38399;52.236;104.280;2022-10-19T08:41:06;18.67;;;7.60;;
52488;SDS011;38399;52.236;104.280;2022-10-19T08:43:37;11.65;;;6.65;;
52488;SDS011;38399;52.236;104.280;2022-10-19T08:48:59;14.23;;;7.72;;
52488;SDS011;38399;52.236;104.280;2022-10-19T08:51:29;14.68;;;7.13;;
52488;SDS011;38399;52.236;104.280;2022-10-19T08:54:01;13.50;;;6.55;;
52488;SDS011;38399;52.236;104.280;2022-10-19T08:56:47;9.13;;;6.43;;
52488;SDS011;38399;52.236;104.280;2022-10-19T09:02:14;16.88;;;7.85;;
52488;SDS011;38399;52.236;104.280;2022-10-19T09:04:50;18.85;;;8.73;;
52488;SDS011;38399;52.236;104.280;2022-10-19T09:07:28;18.80;;;9.13;;
52488;SDS011;38399;52.236;104.280;2022-10-19T09:12:30;14.38;;;8.70;;
52488;SDS011;38399;52.236;104.280;2022-10-19T09:15:31;14.85;;;8.50;;
52488;SDS011;38399;52.236;104.280;2022-10-19T09:18:07;18.77;;;9.15;;
52488;SDS011;38399;52.236;104.280;2022-10-19T09:20:37;20.42;;;8.63;;
52488;SDS011;38399;52.236;104.280;2022-10-19T09:26:08;16.08;;;7.90;;
52488;SDS011;38399;52.236;104.280;2022-10-19T09:31:38;23.50;;;8.73;;
52488;SDS011;38399;52.236;104.280;2022-10-19T09:34:20;16.63;;;7.45;;
52488;SDS011;38399;52.236;104.280;2022-10-19T09:37:05;21.17;;;8.32;;
52488;SDS011;38399;52.236;104.280;2022-10-19T09:39:31;13.23;;;7.10;;
52488;SDS011;38399;52.236;104.280;2022-10-19T09:42:04;15.85;;;7.45;;
52488;SDS011;38399;52.236;104.280;2022-10-19T09:44:35;14.43;;;7.97;;
52488;SDS011;38399;52.236;104.280;2022-10-19T09:52:43;22.20;;;9.55;;
52488;SDS011;38399;52.236;104.280;2022-10-19T09:57:44;29.55;;;10.85;;
52488;SDS011;38399;52.236;104.280;2022-10-19T10:00:16;34.65;;;14.43;;
52488;SDS011;38399;52.236;104.280;2022-10-19T10:02:53;38.45;;;14.77;;
52488;SDS011;38399;52.236;104.280;2022-10-19T10:05:38;38.13;;;15.57;;
52488;SDS011;38399;52.236;104.280;2022-10-19T10:08:16;31.08;;;14.02;;
52488;SDS011;38399;52.236;104.280;2022-10-19T10:10:46;33.85;;;14.20;;
52488;SDS011;38399;52.236;104.280;2022-10-19T10:13:19;28.48;;;12.55;;
52488;SDS011;38399;52.236;104.280;2022-10-19T10:15:50;9.63;;;4.88;;
52488;SDS011;38399;52.236;104.280;2022-10-19T10:18:22;8.18;;;3.95;;
52488;SDS011;38399;52.236;104.280;2022-10-19T10:23:31;5.72;;;3.45;;
52488;SDS011;38399;52.236;104.280;2022-10-19T10:26:01;7.72;;;4.43;;
52488;SDS011;38399;52.236;104.280;2022-10-19T10:28:29;11.23;;;6.55;;
52488;SDS011;38399;52.236;104.280;2022-10-19T10:31:04;17.40;;;9.10;;
52488;SDS011;38399;52.236;104.280;2022-10-19T10:33:33;16.98;;;7.80;;
52488;SDS011;38399;52.236;104.280;2022-10-19T10:36:08;10.55;;;4.47;;
52488;SDS011;38399;52.236;104.280;2022-10-19T10:38:37;5.75;;;3.33;;
52488;SDS011;38399;52.236;104.280;2022-10-19T10:41:25;5.88;;;2.78;;
52488;SDS011;38399;52.236;104.280;2022-10-19T10:43:58;5.50;;;2.97;;
52488;SDS011;38399;52.236;104.280;2022-10-19T10:46:32;5.80;;;3.05;;
52488;SDS011;38399;52.236;104.280;2022-10-19T10:49:02;6.05;;;2.42;;
52488;SDS011;38399;52.236;104.280;2022-10-19T10:51:32;6.25;;;2.70;;
52488;SDS011;38399;52.236;104.280;2022-10-19T10:54:13;4.45;;;2.95;;
52488;SDS011;38399;52.236;104.280;2022-10-19T11:02:52;5.20;;;2.50;;
52488;SDS011;38399;52.236;104.280;2022-10-19T11:05:30;2.88;;;2.00;;
52488;SDS011;38399;52.236;104.280;2022-10-19T11:08:05;4.80;;;2.33;;
52488;SDS011;38399;52.236;104.280;2022-10-19T11:10:53;4.18;;;2.60;;
52488;SDS011;38399;52.236;104.280;2022-10-19T11:16:12;47.28;;;25.58;;
52488;SDS011;38399;52.236;104.280;2022-10-19T11:18:54;45.92;;;24.77;;
52488;SDS011;38399;52.236;104.280;2022-10-19T11:29:39;4.53;;;3.08;;
52488;SDS011;38399;52.236;104.280;2022-10-19T11:32:19;4.45;;;2.75;;
52488;SDS011;38399;52.236;104.280;2022-10-19T11:35:19;5.05;;;3.63;;
52488;SDS011;38399;52.236;104.280;2022-10-19T11:43:09;8.75;;;4.90;;
52488;SDS011;38399;52.236;104.280;2022-10-19T11:54:00;6.53;;;3.47;;
52488;SDS011;38399;52.236;104.280;2022-10-19T12:00:03;6.20;;;3.60;;
52488;SDS011;38399;52.236;104.280;2022-10-19T12:10:54;4.97;;;2.90;;
52488;SDS011;38399;52.236;104.280;2022-10-19T12:13:32;6.00;;;3.17;;
52488;SDS011;38399;52.236;104.280;2022-10-19T12:16:06;6.03;;;3.25;;
52488;SDS011;38399;52.236;104.280;2022-10-19T12:21:13;4.35;;;3.03;;
52488;SDS011;38399;52.236;104.280;2022-10-19T12:23:54;6.47;;;3.55;;
52488;SDS011;38399;52.236;104.280;2022-10-19T12:26:23;9.20;;;5.78;;
52488;SDS011;38399;52.236;104.280;2022-10-19T12:28:53;7.82;;;4.32;;
52488;SDS011;38399;52.236;104.280;2022-10-19T12:31:24;6.72;;;4.28;;
52488;SDS011;38399;52.236;104.280;2022-10-19T12:34:00;6.78;;;3.60;;
52488;SDS011;38399;52.236;104.280;2022-10-19T12:40:04;7.13;;;4.10;;
52488;SDS011;38399;52.236;104.280;2022-10-19T12:42:50;9.45;;;5.90;;
52488;SDS011;38399;52.236;104.280;2022-10-19T12:45:29;10.52;;;5.88;;
52488;SDS011;38399;52.236;104.280;2022-10-19T12:53:27;12.50;;;6.53;;
52488;SDS011;38399;52.236;104.280;2022-10-19T12:56:16;14.57;;;7.60;;
52488;SDS011;38399;52.236;104.280;2022-10-19T12:58:59;13.40;;;6.88;;
52488;SDS011;38399;52.236;104.280;2022-10-19T13:04:11;14.60;;;7.32;;
52488;SDS011;38399;52.236;104.280;2022-10-19T13:09:33;15.38;;;8.98;;
52488;SDS011;38399;52.236;104.280;2022-10-19T13:22:44;19.77;;;10.25;;
52488;SDS011;38399;52.236;104.280;2022-10-19T13:27:42;19.83;;;10.48;;
52488;SDS011;38399;52.236;104.280;2022-10-19T13:38:36;18.73;;;9.88;;
52488;SDS011;38399;52.236;104.280;2022-10-19T13:43:57;21.45;;;9.18;;
52488;SDS011;38399;52.236;104.280;2022-10-19T13:52:31;12.15;;;7.47;;
52488;SDS011;38399;52.236;104.280;2022-10-19T13:55:22;13.85;;;7.60;;
52488;SDS011;38399;52.236;104.280;2022-10-19T14:01:05;9.82;;;6.20;;
52488;SDS011;38399;52.236;104.280;2022-10-19T14:12:05;14.93;;;7.65;;
52488;SDS011;38399;52.236;104.280;2022-10-19T14:14:42;13.50;;;7.43;;
52488;SDS011;38399;52.236;104.280;2022-10-19T14:17:14;11.85;;;7.32;;
52488;SDS011;38399;52.236;104.280;2022-10-19T14:19:54;14.32;;;6.80;;
52488;SDS011;38399;52.236;104.280;2022-10-19T14:22:29;15.05;;;8.48;;
52488;SDS011;38399;52.236;104.280;2022-10-19T14:27:44;11.85;;;6.25;;
52488;SDS011;38399;52.236;104.280;2022-10-19T14:30:22;8.57;;;5.57;;
52488;SDS011;38399;52.236;104.280;2022-10-19T14:32:52;8.90;;;4.80;;
52488;SDS011;38399;52.236;104.280;2022-10-19T14:35:21;6.72;;;4.78;;
52488;SDS011;38399;52.236;104.280;2022-10-19T14:37:58;9.88;;;5.68;;
52488;SDS011;38399;52.236;104.280;2022-10-19T14:40:27;7.00;;;4.47;;
52488;SDS011;38399;52.236;104.280;2022-10-19T14:42:58;7.55;;;4.57;;
52488;SDS011;38399;52.236;104.280;2022-10-19T14:45:29;7.55;;;4.32;;
52488;SDS011;38399;52.236;104.280;2022-10-19T14:50:47;6.95;;;4.22;;
52488;SDS011;38399;52.236;104.280;2022-10-19T14:55:58;8.10;;;4.60;;
52488;SDS011;38399;52.236;104.280;2022-10-19T14:58:31;7.80;;;4.93;;
52488;SDS011;38399;52.236;104.280;2022-10-19T15:01:04;8.05;;;5.28;;
52488;SDS011;38399;52.236;104.280;2022-10-19T15:03:31;12.30;;;6.25;;
52488;SDS011;38399;52.236;104.280;2022-10-19T15:06:03;11.13;;;6.40;;
52488;SDS011;38399;52.236;104.280;2022-10-19T15:08:41;8.82;;;5.95;;
52488;SDS011;38399;52.236;104.280;2022-10-19T15:11:26;10.40;;;6.13;;
52488;SDS011;38399;52.236;104.280;2022-10-19T15:13:56;10.70;;;6.10;;
52488;SDS011;38399;52.236;104.280;2022-10-19T15:17:18;11.88;;;6.10;;
52488;SDS011;38399;52.236;104.280;2022-10-19T15:24:53;8.40;;;4.97;;
52488;SDS011;38399;52.236;104.280;2022-10-19T15:27:32;9.57;;;5.88;;
52488;SDS011;38399;52.236;104.280;2022-10-19T15:30:21;11.60;;;5.90;;
52488;SDS011;38399;52.236;104.280;2022-10-19T15:33:08;10.95;;;6.43;;
52488;SDS011;38399;52.236;104.280;2022-10-19T15:35:39;10.45;;;6.43;;
52488;SDS011;38399;52.236;104.280;2022-10-19T15:38:22;12.23;;;5.63;;
52488;SDS011;38399;52.236;104.280;2022-10-19T15:41:00;8.73;;;5.30;;
52488;SDS011;38399;52.236;104.280;2022-10-19T15:46:32;8.05;;;5.60;;
52488;SDS011;38399;52.236;104.280;2022-10-19T15:53:52;10.60;;;5.65;;
52488;SDS011;38399;52.236;104.280;2022-10-19T15:56:21;11.43;;;5.50;;
52488;SDS011;38399;52.236;104.280;2022-10-19T15:58:49;10.75;;;5.40;;
52488;SDS011;38399;52.236;104.280;2022-10-19T16:01:18;10.52;;;5.93;;
52488;SDS011;38399;52.236;104.280;2022-10-19T16:03:45;8.68;;;5.35;;
52488;SDS011;38399;52.236;104.280;2022-10-19T16:06:11;12.00;;;6.40;;
52488;SDS011;38399;52.236;104.280;2022-10-19T16:08:38;12.20;;;5.72;;
52488;SDS011;38399;52.236;104.280;2022-10-19T16:11:04;10.23;;;6.18;;
52488;SDS011;38399;52.236;104.280;2022-10-19T16:13:31;12.05;;;6.70;;
52488;SDS011;38399;52.236;104.280;2022-10-19T16:16:02;9.43;;;5.80;;
52488;SDS011;38399;52.236;104.280;2022-10-19T16:18:31;9.80;;;5.60;;
52488;SDS011;38399;52.236;104.280;2022-10-19T16:20:57;11.27;;;6.22;;
52488;SDS011;38399;52.236;104.280;2022-10-19T16:23:24;9.80;;;6.65;;
52488;SDS011;38399;52.236;104.280;2022-10-19T16:25:51;11.82;;;7.13;;
52488;SDS011;38399;52.236;104.280;2022-10-19T16:28:18;11.52;;;6.65;;
52488;SDS011;38399;52.236;104.280;2022-10-19T16:30:45;10.48;;;6.80;;
52488;SDS011;38399;52.236;104.280;2022-10-19T16:33:17;11.48;;;7.30;;
52488;SDS011;38399;52.236;104.280;2022-10-19T16:35:43;12.57;;;6.70;;
52488;SDS011;38399;52.236;104.280;2022-10-19T16:38:09;10.55;;;5.97;;
52488;SDS011;38399;52.236;104.280;2022-10-19T16:43:02;12.57;;;6.82;;
52488;SDS011;38399;52.236;104.280;2022-10-19T16:45:30;12.55;;;7.72;;
52488;SDS011;38399;52.236;104.280;2022-10-19T16:47:56;13.45;;;7.57;;
52488;SDS011;38399;52.236;104.280;2022-10-19T16:50:22;12.52;;;7.57;;
52488;SDS011;38399;52.236;104.280;2022-10-19T16:53:02;13.95;;;7.72;;
52488;SDS011;38399;52.236;104.280;2022-10-19T16:55:35;14.07;;;7.63;;
52488;SDS011;38399;52.236;104.280;2022-10-19T16:58:03;13.13;;;7.88;;
52488;SDS011;38399;52.236;104.280;2022-10-19T17:00:29;12.02;;;7.85;;
52488;SDS011;38399;52.236;104.280;2022-10-19T17:02:56;14.93;;;7.55;;
52488;SDS011;38399;52.236;104.280;2022-10-19T17:05:24;11.27;;;6.53;;
52488;SDS011;38399;52.236;104.280;2022-10-19T17:07:51;12.95;;;7.35;;
52488;SDS011;38399;52.236;104.280;2022-10-19T17:10:18;11.05;;;6.63;;
52488;SDS011;38399;52.236;104.280;2022-10-19T17:12:44;8.65;;;5.57;;
52488;SDS011;38399;52.236;104.280;2022-10-19T17:15:10;9.02;;;5.75;;
52488;SDS011;38399;52.236;104.280;2022-10-19T17:17:37;8.82;;;5.05;;
52488;SDS011;38399;52.236;104.280;2022-10-19T17:20:04;6.97;;;5.13;;
52488;SDS011;38399;52.236;104.280;2022-10-19T17:22:30;7.80;;;5.10;;
52488;SDS011;38399;52.236;104.280;2022-10-19T17:24:56;6.45;;;4.25;;
52488;SDS011;38399;52.236;104.280;2022-10-19T17:27:23;8.48;;;4.82;;
52488;SDS011;38399;52.236;104.280;2022-10-19T17:29:49;8.88;;;4.68;;
52488;SDS011;38399;52.236;104.280;2022-10-19T17:32:16;7.97;;;4.82;;
52488;SDS011;38399;52.236;104.280;2022-10-19T17:34:42;7.25;;;4.82;;
52488;SDS011;38399;52.236;104.280;2022-10-19T17:37:09;7.88;;;4.53;;
52488;SDS011;38399;52.236;104.280;2022-10-19T17:39:35;9.20;;;5.35;;
52488;SDS011;38399;52.236;104.280;2022-10-19T17:42:01;6.82;;;4.40;;
52488;SDS011;38399;52.236;104.280;2022-10-19T17:44:29;8.93;;;5.43;;
52488;SDS011;38399;52.236;104.280;2022-10-19T17:46:56;10.95;;;5.93;;
52488;SDS011;38399;52.236;104.280;2022-10-19T17:51:50;8.43;;;5.10;;